Time,TemperatureF,DewpointF,PressureIn,WindDirection,WindDirectionDegrees,WindSpeedMPH,WindSpeedGustMPH,Humidity,HourlyPrecipIn,Conditions,Clouds,dailyrainin,SoftwareType,DateUTC
2013-07-06 00:01:00,74.7,72.1,30.05,South,180,1.6,1.6,92,0.00,,,0.00,meteobridge,2013-07-06 04:01:00,
2013-07-06 00:02:00,74.7,72.1,30.05,West,270,2.2,2.2,92,0.00,,,0.00,meteobridge,2013-07-06 04:02:00,
2013-07-06 00:04:00,74.7,72.1,30.05,East,90,0.7,2.2,92,0.00,,,0.00,meteobridge,2013-07-06 04:04:00,
2013-07-06 00:09:00,74.7,72.1,30.05,South,180,1.6,1.6,92,0.00,,,0.00,meteobridge,2013-07-06 04:09:00,
2013-07-06 00:14:00,74.7,72.1,30.05,NNW,338,0.0,1.6,92,0.00,,,0.00,meteobridge,2013-07-06 04:14:00,
2013-07-06 00:19:00,74.5,72.0,30.05,North,0,1.6,3.8,92,0.00,,,0.00,meteobridge,2013-07-06 04:19:00,
2013-07-06 00:24:00,74.5,72.0,30.05,SW,225,3.8,3.8,92,0.00,,,0.00,meteobridge,2013-07-06 04:24:00,
2013-07-06 00:29:00,74.5,72.3,30.05,SE,135,1.6,1.6,93,0.00,,,0.00,meteobridge,2013-07-06 04:29:00,
2013-07-06 00:35:00,74.5,72.3,30.05,East,90,1.6,1.6,93,0.00,,,0.00,meteobridge,2013-07-06 04:35:00,
2013-07-06 00:40:00,74.5,72.3,30.05,South,180,1.6,1.6,93,0.00,,,0.00,meteobridge,2013-07-06 04:40:00,
2013-07-06 00:45:00,74.5,72.3,30.06,SE,135,1.6,2.2,93,0.00,,,0.00,meteobridge,2013-07-06 04:45:00,
2013-07-06 00:50:00,74.3,72.1,30.06,SW,225,0.7,2.2,93,0.00,,,0.00,meteobridge,2013-07-06 04:50:00,
2013-07-06 00:55:00,74.3,72.1,30.06,South,180,0.7,2.2,93,0.00,,,0.00,meteobridge,2013-07-06 04:55:00,
2013-07-06 01:00:00,74.3,72.1,30.06,North,0,1.6,2.2,93,0.00,,,0.00,meteobridge,2013-07-06 05:00:00,
2013-07-06 01:06:00,74.3,72.1,30.06,SW,225,0.7,1.6,93,0.00,,,0.00,meteobridge,2013-07-06 05:06:00,
2013-07-06 01:11:00,74.3,72.1,30.06,South,180,0.7,1.6,93,0.00,,,0.00,meteobridge,2013-07-06 05:11:00,
2013-07-06 01:16:00,74.3,72.1,30.06,SSW,203,0.7,0.7,93,0.00,,,0.00,meteobridge,2013-07-06 05:16:00,
2013-07-06 01:21:00,74.3,72.5,30.06,NW,315,2.2,2.2,94,0.00,,,0.00,meteobridge,2013-07-06 05:21:00,
2013-07-06 01:26:00,74.1,72.0,30.05,North,0,1.6,3.1,93,0.00,,,0.00,meteobridge,2013-07-06 05:26:00,
2013-07-06 01:31:00,74.3,72.1,30.05,South,180,1.6,1.6,93,0.00,,,0.00,meteobridge,2013-07-06 05:31:00,
2013-07-06 01:37:00,74.1,72.0,30.05,NNW,338,1.6,1.6,93,0.00,,,0.00,meteobridge,2013-07-06 05:37:00,
2013-07-06 01:42:00,74.3,72.1,30.05,SE,135,2.2,2.2,93,0.00,,,0.00,meteobridge,2013-07-06 05:42:00,
2013-07-06 01:47:00,74.1,72.0,30.05,West,270,1.6,1.6,93,0.00,,,0.00,meteobridge,2013-07-06 05:47:00,
2013-07-06 01:52:00,74.1,72.0,30.06,NW,315,1.6,3.1,93,0.00,,,0.00,meteobridge,2013-07-06 05:52:00,
2013-07-06 01:57:00,74.1,72.0,30.06,South,180,0.7,2.2,93,0.00,,,0.00,meteobridge,2013-07-06 05:57:00,
2013-07-06 02:02:00,74.1,72.0,30.06,West,270,0.7,1.6,93,0.00,,,0.00,meteobridge,2013-07-06 06:02:00,
2013-07-06 02:08:00,74.1,72.0,30.06,South,180,0.7,2.2,93,0.00,,,0.00,meteobridge,2013-07-06 06:08:00,
2013-07-06 02:13:00,74.1,72.0,30.05,SW,225,0.7,1.6,93,0.00,,,0.00,meteobridge,2013-07-06 06:13:00,
2013-07-06 02:18:00,74.1,72.0,30.06,West,270,0.0,0.0,93,0.00,,,0.00,meteobridge,2013-07-06 06:18:00,
2013-07-06 02:23:00,74.1,72.0,30.06,SSW,203,0.7,2.2,93,0.00,,,0.00,meteobridge,2013-07-06 06:23:00,
2013-07-06 02:28:00,74.1,72.0,30.06,South,180,0.7,0.7,93,0.00,,,0.00,meteobridge,2013-07-06 06:28:00,
2013-07-06 02:33:00,74.1,72.0,30.06,NE,45,1.6,1.6,93,0.00,,,0.00,meteobridge,2013-07-06 06:33:00,
2013-07-06 02:39:00,74.1,72.0,30.06,West,270,0.7,0.7,93,0.00,,,0.00,meteobridge,2013-07-06 06:39:00,
2013-07-06 02:44:00,74.1,72.0,30.06,SW,225,0.0,1.6,93,0.00,,,0.00,meteobridge,2013-07-06 06:44:00,
2013-07-06 02:49:00,74.1,72.0,30.06,North,0,0.7,0.7,93,0.00,,,0.00,meteobridge,2013-07-06 06:49:00,
2013-07-06 02:54:00,74.1,72.0,30.05,SE,135,0.7,1.6,93,0.00,,,0.00,meteobridge,2013-07-06 06:54:00,
2013-07-06 02:59:00,74.1,72.0,30.05,NE,45,0.7,0.7,93,0.00,,,0.00,meteobridge,2013-07-06 06:59:00,
2013-07-06 03:04:00,74.1,72.0,30.05,South,180,1.6,1.6,93,0.00,,,0.00,meteobridge,2013-07-06 07:04:00,
2013-07-06 03:10:00,74.1,72.0,30.05,South,180,0.7,1.6,93,0.00,,,0.00,meteobridge,2013-07-06 07:10:00,
2013-07-06 03:15:00,74.1,72.0,30.05,SW,225,0.7,0.7,93,0.00,,,0.00,meteobridge,2013-07-06 07:15:00,
2013-07-06 03:20:00,73.9,72.1,30.05,South,180,1.6,1.6,94,0.00,,,0.00,meteobridge,2013-07-06 07:20:00,
2013-07-06 03:25:00,74.1,72.3,30.05,SW,225,0.7,2.2,94,0.00,,,0.00,meteobridge,2013-07-06 07:25:00,
2013-07-06 03:30:00,74.1,72.3,30.05,NE,45,1.6,1.6,94,0.00,,,0.00,meteobridge,2013-07-06 07:30:00,
2013-07-06 03:36:00,74.1,72.3,30.05,North,0,0.0,0.7,94,0.00,,,0.00,meteobridge,2013-07-06 07:36:00,
2013-07-06 03:41:00,74.3,72.5,30.05,SE,135,1.6,1.6,94,0.00,,,0.00,meteobridge,2013-07-06 07:41:00,
2013-07-06 03:46:00,74.3,72.5,30.05,SW,225,0.7,1.6,94,0.00,,,0.00,meteobridge,2013-07-06 07:46:00,
2013-07-06 03:51:00,74.5,72.7,30.04,NW,315,0.7,2.2,94,0.00,,,0.00,meteobridge,2013-07-06 07:51:00,
2013-07-06 03:56:00,74.7,72.9,30.05,South,180,1.6,1.6,94,0.00,,,0.00,meteobridge,2013-07-06 07:56:00,
2013-07-06 04:01:00,74.8,72.7,30.04,SE,135,0.7,1.6,93,0.00,,,0.00,meteobridge,2013-07-06 08:01:00,
2013-07-06 04:07:00,74.8,72.7,30.04,NW,315,1.6,1.6,93,0.00,,,0.00,meteobridge,2013-07-06 08:07:00,
2013-07-06 04:12:00,75.0,72.9,30.04,West,270,1.6,1.6,93,0.00,,,0.00,meteobridge,2013-07-06 08:12:00,
2013-07-06 04:17:00,75.0,72.5,30.04,NW,315,1.6,1.6,92,0.00,,,0.00,meteobridge,2013-07-06 08:17:00,
2013-07-06 04:22:00,75.0,72.5,30.04,NW,315,1.6,2.2,92,0.00,,,0.00,meteobridge,2013-07-06 08:22:00,
2013-07-06 04:27:00,75.0,72.5,30.04,NW,315,0.7,1.6,92,0.00,,,0.00,meteobridge,2013-07-06 08:27:00,
2013-07-06 04:32:00,75.0,72.5,30.05,SE,135,0.7,2.2,92,0.00,,,0.00,meteobridge,2013-07-06 08:32:00,
2013-07-06 04:38:00,75.0,72.5,30.04,North,0,1.6,1.6,92,0.00,,,0.00,meteobridge,2013-07-06 08:38:00,
2013-07-06 04:43:00,75.0,72.5,30.04,SE,135,0.7,1.6,92,0.00,,,0.00,meteobridge,2013-07-06 08:43:00,
2013-07-06 04:48:00,75.0,72.5,30.04,NW,315,0.7,1.6,92,0.00,,,0.00,meteobridge,2013-07-06 08:48:00,
2013-07-06 04:53:00,75.0,72.5,30.04,SW,225,0.7,0.7,92,0.00,,,0.00,meteobridge,2013-07-06 08:53:00,
2013-07-06 04:58:00,75.0,72.5,30.04,North,0,1.6,3.1,92,0.00,,,0.00,meteobridge,2013-07-06 08:58:00,
2013-07-06 05:03:00,75.0,72.5,30.04,SW,225,0.7,0.7,92,0.00,,,0.00,meteobridge,2013-07-06 09:03:00,
2013-07-06 05:09:00,74.8,72.3,30.04,SW,225,0.7,1.6,92,0.00,,,0.00,meteobridge,2013-07-06 09:09:00,
2013-07-06 05:14:00,74.8,72.3,30.04,South,180,0.7,0.7,92,0.00,,,0.00,meteobridge,2013-07-06 09:14:00,
2013-07-06 05:19:00,74.8,72.3,30.04,North,0,0.7,1.6,92,0.00,,,0.00,meteobridge,2013-07-06 09:19:00,
2013-07-06 05:24:00,74.7,72.1,30.04,South,180,0.7,1.6,92,0.00,,,0.00,meteobridge,2013-07-06 09:24:00,
2013-07-06 05:29:00,74.7,72.1,30.05,North,0,0.0,0.0,92,0.00,,,0.00,meteobridge,2013-07-06 09:29:00,
2013-07-06 05:34:00,74.7,72.1,30.05,SE,135,0.7,1.6,92,0.00,,,0.00,meteobridge,2013-07-06 09:34:00,
2013-07-06 05:40:00,74.7,72.5,30.05,West,270,0.0,0.7,93,0.00,,,0.00,meteobridge,2013-07-06 09:40:00,
2013-07-06 05:45:00,74.5,72.3,30.05,SE,135,0.7,1.6,93,0.00,,,0.00,meteobridge,2013-07-06 09:45:00,
2013-07-06 05:50:00,74.5,72.3,30.05,West,270,0.0,0.0,93,0.00,,,0.00,meteobridge,2013-07-06 09:50:00,
2013-07-06 05:55:00,74.5,72.3,30.06,NW,315,0.0,0.0,93,0.00,,,0.00,meteobridge,2013-07-06 09:55:00,
2013-07-06 06:00:00,74.5,72.3,30.05,NW,315,0.0,0.0,93,0.00,,,0.00,meteobridge,2013-07-06 10:00:00,
2013-07-06 06:05:00,74.5,72.7,30.05,NW,315,0.0,0.0,94,0.00,,,0.00,meteobridge,2013-07-06 10:05:00,
2013-07-06 06:11:00,74.5,72.7,30.05,SW,225,0.7,0.7,94,0.00,,,0.00,meteobridge,2013-07-06 10:11:00,
2013-07-06 06:16:00,74.7,72.9,30.05,NW,315,0.7,0.7,94,0.00,,,0.00,meteobridge,2013-07-06 10:16:00,
2013-07-06 06:21:00,74.8,73.0,30.05,East,90,1.6,1.6,94,0.00,,,0.00,meteobridge,2013-07-06 10:21:00,
2013-07-06 06:26:00,74.8,73.0,30.05,SW,225,0.0,0.7,94,0.00,,,0.00,meteobridge,2013-07-06 10:26:00,
2013-07-06 06:31:00,75.0,73.2,30.05,NW,315,0.0,0.0,94,0.00,,,0.00,meteobridge,2013-07-06 10:31:00,
2013-07-06 06:36:00,75.2,73.0,30.05,SW,225,0.7,0.7,93,0.00,,,0.00,meteobridge,2013-07-06 10:36:00,
2013-07-06 06:42:00,75.4,73.2,30.06,SW,225,1.6,1.6,93,0.00,,,0.00,meteobridge,2013-07-06 10:42:00,
2013-07-06 06:47:00,75.6,73.0,30.05,SW,225,0.0,1.6,92,0.00,,,0.00,meteobridge,2013-07-06 10:47:00,
2013-07-06 06:52:00,75.7,73.2,30.06,West,270,0.7,1.6,92,0.00,,,0.00,meteobridge,2013-07-06 10:52:00,
2013-07-06 06:57:00,75.9,73.4,30.05,SSE,158,0.7,1.6,92,0.00,,,0.00,meteobridge,2013-07-06 10:57:00,
2013-07-06 07:02:00,75.9,73.4,30.05,WSW,248,0.7,0.7,92,0.00,,,0.00,meteobridge,2013-07-06 11:02:00,
2013-07-06 07:07:00,76.1,73.2,30.05,SE,135,1.6,1.6,91,0.00,,,0.00,meteobridge,2013-07-06 11:07:00,
2013-07-06 07:13:00,76.5,73.6,30.05,South,180,0.7,0.7,91,0.00,,,0.00,meteobridge,2013-07-06 11:13:00,
2013-07-06 07:18:00,76.6,73.8,30.05,SW,225,1.6,1.6,91,0.00,,,0.00,meteobridge,2013-07-06 11:18:00,
2013-07-06 07:23:00,76.8,73.9,30.05,NE,45,2.2,2.2,91,0.00,,,0.00,meteobridge,2013-07-06 11:23:00,
2013-07-06 07:28:00,77.0,73.6,30.05,South,180,0.7,0.7,89,0.00,,,0.00,meteobridge,2013-07-06 11:28:00,
2013-07-06 07:33:00,77.4,73.9,30.05,South,180,1.6,1.6,89,0.00,,,0.00,meteobridge,2013-07-06 11:33:00,
2013-07-06 07:38:00,78.1,74.5,30.06,NW,315,1.6,1.6,89,0.00,,,0.00,meteobridge,2013-07-06 11:38:00,
2013-07-06 07:44:00,79.2,74.7,30.05,WSW,248,1.6,1.6,86,0.00,,,0.00,meteobridge,2013-07-06 11:44:00,
2013-07-06 07:49:00,80.1,75.2,30.05,ENE,68,2.2,2.2,85,0.00,,,0.00,meteobridge,2013-07-06 11:49:00,
2013-07-06 07:54:00,80.4,74.5,30.05,NW,315,0.7,2.2,82,0.00,,,0.00,meteobridge,2013-07-06 11:54:00,
2013-07-06 07:59:00,80.2,74.3,30.05,SE,135,1.6,2.2,82,0.00,,,0.00,meteobridge,2013-07-06 11:59:00,
2013-07-06 08:04:00,79.9,74.3,30.05,SW,225,0.7,1.6,83,0.00,,,0.00,meteobridge,2013-07-06 12:04:00,
2013-07-06 08:09:00,79.7,74.1,30.05,North,0,2.2,2.2,83,0.00,,,0.00,meteobridge,2013-07-06 12:09:00,
2013-07-06 08:15:00,79.3,73.8,30.05,NW,315,3.1,3.1,83,0.00,,,0.00,meteobridge,2013-07-06 12:15:00,
2013-07-06 08:20:00,79.2,73.6,30.05,SW,225,2.2,2.2,83,0.00,,,0.00,meteobridge,2013-07-06 12:20:00,
2013-07-06 08:25:00,79.2,73.6,30.05,SW,225,0.7,1.6,83,0.00,,,0.00,meteobridge,2013-07-06 12:25:00,
2013-07-06 08:30:00,79.3,74.1,30.05,SE,135,3.8,3.8,84,0.00,,,0.00,meteobridge,2013-07-06 12:30:00,
2013-07-06 08:35:00,79.7,74.5,30.05,NW,315,0.7,0.7,84,0.00,,,0.00,meteobridge,2013-07-06 12:35:00,
2013-07-06 08:36:00,79.7,74.5,30.05,SE,135,2.2,2.2,84,0.00,,,0.00,meteobridge,2013-07-06 12:36:00,
2013-07-06 08:41:00,80.1,74.5,30.05,SW,225,1.6,3.1,83,0.00,,,0.00,meteobridge,2013-07-06 12:41:00,
2013-07-06 08:46:00,80.1,74.5,30.05,West,270,0.7,1.6,83,0.00,,,0.00,meteobridge,2013-07-06 12:46:00,
2013-07-06 08:52:00,80.2,74.7,30.05,North,0,0.7,1.6,83,0.00,,,0.00,meteobridge,2013-07-06 12:52:00,
2013-07-06 08:57:00,80.4,74.5,30.04,NW,315,1.6,1.6,82,0.00,,,0.00,meteobridge,2013-07-06 12:57:00,
2013-07-06 09:02:00,80.6,74.7,30.05,SSE,158,0.7,1.6,82,0.00,,,0.00,meteobridge,2013-07-06 13:02:00,
2013-07-06 09:07:00,81.0,74.7,30.04,SE,135,0.7,2.2,81,0.00,,,0.00,meteobridge,2013-07-06 13:07:00,
2013-07-06 09:12:00,81.0,74.7,30.04,South,180,1.6,2.2,81,0.00,,,0.00,meteobridge,2013-07-06 13:12:00,
2013-07-06 09:17:00,81.0,74.7,30.04,East,90,0.7,1.6,81,0.00,,,0.00,meteobridge,2013-07-06 13:17:00,
2013-07-06 09:23:00,81.5,75.0,30.04,South,180,2.2,2.2,81,0.00,,,0.00,meteobridge,2013-07-06 13:23:00,
2013-07-06 09:28:00,81.7,75.2,30.04,West,270,1.6,1.6,81,0.00,,,0.00,meteobridge,2013-07-06 13:28:00,
2013-07-06 09:33:00,82.2,75.7,30.03,NW,315,1.6,1.6,81,0.00,,,0.00,meteobridge,2013-07-06 13:33:00,
2013-07-06 09:38:00,82.9,75.7,30.03,SW,225,1.6,1.6,79,0.00,,,0.00,meteobridge,2013-07-06 13:38:00,
2013-07-06 09:43:00,83.3,75.7,30.03,North,0,1.6,1.6,78,0.00,,,0.00,meteobridge,2013-07-06 13:43:00,
2013-07-06 09:48:00,83.7,75.7,30.03,NW,315,0.7,1.6,77,0.00,,,0.00,meteobridge,2013-07-06 13:48:00,
2013-07-06 09:54:00,84.0,76.1,30.03,West,270,0.0,1.6,77,0.00,,,0.00,meteobridge,2013-07-06 13:54:00,
2013-07-06 09:59:00,84.6,76.1,30.03,South,180,2.2,2.2,76,0.00,,,0.00,meteobridge,2013-07-06 13:59:00,
2013-07-06 10:04:00,85.3,76.5,30.03,North,0,1.6,1.6,75,0.00,,,0.00,meteobridge,2013-07-06 14:04:00,
2013-07-06 10:09:00,86.0,76.3,30.03,WSW,248,1.6,1.6,73,0.00,,,0.00,meteobridge,2013-07-06 14:09:00,
2013-07-06 10:14:00,87.3,77.5,30.03,NE,45,0.0,1.6,73,0.00,,,0.00,meteobridge,2013-07-06 14:14:00,
2013-07-06 10:19:00,89.4,77.5,30.03,East,90,2.2,2.2,68,0.00,,,0.00,meteobridge,2013-07-06 14:19:00,
2013-07-06 10:25:00,91.6,76.6,30.03,SW,225,1.6,2.2,62,0.00,,,0.00,meteobridge,2013-07-06 14:25:00,
2013-07-06 10:30:00,92.8,76.8,30.03,North,0,2.2,2.2,60,0.00,,,0.00,meteobridge,2013-07-06 14:30:00,
2013-07-06 10:35:00,93.2,76.3,30.03,SW,225,2.2,2.2,58,0.00,,,0.00,meteobridge,2013-07-06 14:35:00,
2013-07-06 10:40:00,93.4,76.8,30.03,SSW,203,1.6,1.6,59,0.00,,,0.00,meteobridge,2013-07-06 14:40:00,
2013-07-06 10:45:00,93.7,76.6,30.02,NW,315,1.6,1.6,58,0.00,,,0.00,meteobridge,2013-07-06 14:45:00,
2013-07-06 10:50:00,94.5,77.4,30.03,South,180,1.6,1.6,58,0.00,,,0.00,meteobridge,2013-07-06 14:50:00,
2013-07-06 10:56:00,95.0,77.4,30.03,North,0,1.6,1.6,57,0.00,,,0.00,meteobridge,2013-07-06 14:56:00,
2013-07-06 11:01:00,95.9,77.7,30.03,NW,315,1.6,1.6,56,0.00,,,0.00,meteobridge,2013-07-06 15:01:00,
2013-07-06 11:06:00,96.3,77.5,30.03,NE,45,1.6,1.6,55,0.00,,,0.00,meteobridge,2013-07-06 15:06:00,
2013-07-06 11:11:00,96.3,76.8,30.02,East,90,2.2,2.2,54,0.00,,,0.00,meteobridge,2013-07-06 15:11:00,
2013-07-06 11:14:00,96.3,76.8,30.02,South,180,1.6,1.6,54,0.00,,,0.00,meteobridge,2013-07-06 15:14:00,
2013-07-06 11:19:00,96.6,77.7,30.02,South,180,1.6,1.6,55,0.00,,,0.00,meteobridge,2013-07-06 15:19:00,
2013-07-06 11:24:00,96.6,77.2,30.02,North,0,1.6,2.2,54,0.00,,,0.00,meteobridge,2013-07-06 15:24:00,
2013-07-06 11:29:00,97.0,77.0,30.02,SE,135,1.6,1.6,53,0.00,,,0.00,meteobridge,2013-07-06 15:29:00,
2013-07-06 11:35:00,97.3,77.4,30.02,South,180,1.6,1.6,53,0.00,,,0.00,meteobridge,2013-07-06 15:35:00,
2013-07-06 11:40:00,98.1,77.4,30.02,SW,225,2.2,2.2,52,0.00,,,0.00,meteobridge,2013-07-06 15:40:00,
2013-07-06 11:45:00,98.4,77.7,30.02,NE,45,1.6,2.2,52,0.00,,,0.00,meteobridge,2013-07-06 15:45:00,
2013-07-06 11:50:00,97.5,76.3,30.02,South,180,1.6,2.2,51,0.00,,,0.00,meteobridge,2013-07-06 15:50:00,
2013-07-06 11:55:00,97.3,76.8,30.02,North,0,1.6,1.6,52,0.00,,,0.00,meteobridge,2013-07-06 15:55:00,
2013-07-06 12:00:00,98.2,77.5,30.02,North,0,1.6,1.6,52,0.00,,,0.00,meteobridge,2013-07-06 16:00:00,
2013-07-06 12:06:00,98.8,76.3,30.01,North,0,1.6,2.2,49,0.00,,,0.00,meteobridge,2013-07-06 16:06:00,
2013-07-06 12:11:00,99.0,77.7,30.01,SW,225,0.7,0.7,51,0.00,,,0.00,meteobridge,2013-07-06 16:11:00,
2013-07-06 12:16:00,99.3,77.4,30.01,East,90,0.7,1.6,50,0.00,,,0.00,meteobridge,2013-07-06 16:16:00,
2013-07-06 12:21:00,99.3,77.4,30.01,South,180,1.6,3.1,50,0.00,,,0.00,meteobridge,2013-07-06 16:21:00,
2013-07-06 12:26:00,99.1,77.2,30.01,West,270,0.7,1.6,50,0.00,,,0.00,meteobridge,2013-07-06 16:26:00,
2013-07-06 12:31:00,99.7,77.7,30.01,NW,315,1.6,1.6,50,0.00,,,0.00,meteobridge,2013-07-06 16:31:00,
2013-07-06 12:37:00,100.0,78.1,30.01,South,180,1.6,1.6,50,0.00,,,0.00,meteobridge,2013-07-06 16:37:00,
2013-07-06 12:42:00,100.4,77.2,30.01,East,90,1.6,2.2,48,0.00,,,0.00,meteobridge,2013-07-06 16:42:00,
2013-07-06 12:47:00,100.0,77.4,30.01,SE,135,1.6,1.6,49,0.00,,,0.00,meteobridge,2013-07-06 16:47:00,
2013-07-06 12:52:00,100.0,77.4,30.01,SW,225,1.6,1.6,49,0.00,,,0.00,meteobridge,2013-07-06 16:52:00,
2013-07-06 12:57:00,100.4,77.2,30.00,North,0,2.2,2.2,48,0.00,,,0.00,meteobridge,2013-07-06 16:57:00,
2013-07-06 13:03:00,99.3,76.1,30.00,NE,45,2.2,2.2,48,0.00,,,0.00,meteobridge,2013-07-06 17:03:00,
2013-07-06 13:08:00,99.1,75.9,30.00,North,0,0.7,2.2,48,0.00,,,0.00,meteobridge,2013-07-06 17:08:00,
2013-07-06 13:13:00,99.3,76.8,30.00,WSW,248,0.7,1.6,49,0.00,,,0.00,meteobridge,2013-07-06 17:13:00,
2013-07-06 13:18:00,99.5,76.3,30.00,WNW,293,0.7,2.2,48,0.00,,,0.00,meteobridge,2013-07-06 17:18:00,
2013-07-06 13:23:00,99.5,77.0,30.00,WSW,248,1.6,1.6,49,0.00,,,0.00,meteobridge,2013-07-06 17:23:00,
2013-07-06 13:28:00,99.5,77.0,30.00,SSW,203,0.7,0.7,49,0.00,,,0.00,meteobridge,2013-07-06 17:28:00,
2013-07-06 13:33:00,99.3,76.8,30.00,West,270,0.7,1.6,49,0.00,,,0.00,meteobridge,2013-07-06 17:33:00,
2013-07-06 13:38:00,98.8,76.3,30.00,SW,225,1.6,1.6,49,0.00,,,0.00,meteobridge,2013-07-06 17:38:00,
2013-07-06 13:43:00,98.6,76.1,29.99,North,0,2.2,2.2,49,0.00,,,0.00,meteobridge,2013-07-06 17:43:00,
2013-07-06 13:49:00,98.1,76.3,30.00,NW,315,1.6,1.6,50,0.00,,,0.00,meteobridge,2013-07-06 17:49:00,
2013-07-06 13:54:00,97.3,76.1,29.99,NNW,338,0.7,0.7,51,0.00,,,0.00,meteobridge,2013-07-06 17:54:00,
2013-07-06 13:59:00,97.0,76.5,30.00,SW,225,0.7,1.6,52,0.00,,,0.00,meteobridge,2013-07-06 17:59:00,
2013-07-06 14:04:00,96.6,77.2,29.99,West,270,0.7,0.7,54,0.00,,,0.00,meteobridge,2013-07-06 18:04:00,
2013-07-06 14:10:00,96.6,77.2,29.99,North,0,0.7,1.6,54,0.00,,,0.00,meteobridge,2013-07-06 18:10:00,
2013-07-06 14:15:00,96.4,77.0,29.99,West,270,1.6,1.6,54,0.00,,,0.00,meteobridge,2013-07-06 18:15:00,
2013-07-06 14:20:00,96.3,76.8,29.99,SE,135,0.7,1.6,54,0.00,,,0.00,meteobridge,2013-07-06 18:20:00,
2013-07-06 14:25:00,96.4,77.0,29.99,SW,225,1.6,1.6,54,0.00,,,0.00,meteobridge,2013-07-06 18:25:00,
2013-07-06 14:31:00,96.4,77.0,29.99,South,180,0.7,1.6,54,0.00,,,0.00,meteobridge,2013-07-06 18:31:00,
2013-07-06 14:36:00,96.3,76.8,29.99,SE,135,1.6,1.6,54,0.00,,,0.00,meteobridge,2013-07-06 18:36:00,
2013-07-06 14:41:00,95.7,76.5,29.99,SE,135,1.6,1.6,54,0.00,,,0.00,meteobridge,2013-07-06 18:41:00,
2013-07-06 14:46:00,95.2,75.9,29.98,South,180,1.6,2.2,54,0.00,,,0.00,meteobridge,2013-07-06 18:46:00,
2013-07-06 14:51:00,95.2,76.5,29.98,SW,225,1.6,2.2,55,0.00,,,0.00,meteobridge,2013-07-06 18:51:00,
2013-07-06 14:56:00,95.0,76.3,29.98,ENE,68,2.2,2.2,55,0.00,,,0.00,meteobridge,2013-07-06 18:56:00,
2013-07-06 15:02:00,94.1,75.9,29.98,SSE,158,3.1,3.1,56,0.00,,,0.00,meteobridge,2013-07-06 19:02:00,
2013-07-06 15:07:00,93.4,75.9,29.98,SW,225,0.7,0.7,57,0.00,,,0.00,meteobridge,2013-07-06 19:07:00,
2013-07-06 15:12:00,93.7,76.6,29.98,South,180,1.6,1.6,58,0.00,,,0.00,meteobridge,2013-07-06 19:12:00,
2013-07-06 15:17:00,93.6,76.1,29.99,South,180,0.7,1.6,57,0.00,,,0.00,meteobridge,2013-07-06 19:17:00,
2013-07-06 15:22:00,93.0,76.6,29.98,South,180,1.6,1.6,59,0.00,,,0.00,meteobridge,2013-07-06 19:22:00,
2013-07-06 15:27:00,92.7,77.2,29.98,SE,135,0.7,1.6,61,0.00,,,0.00,meteobridge,2013-07-06 19:27:00,
2013-07-06 15:32:00,92.3,76.8,29.98,SW,225,0.7,0.7,61,0.00,,,0.00,meteobridge,2013-07-06 19:32:00,
2013-07-06 15:37:00,92.1,77.2,29.98,South,180,1.6,1.6,62,0.00,,,0.00,meteobridge,2013-07-06 19:37:00,
2013-07-06 15:42:00,92.1,77.2,29.98,NW,315,1.6,1.6,62,0.00,,,0.00,meteobridge,2013-07-06 19:42:00,
2013-07-06 15:48:00,92.3,77.4,29.98,South,180,1.6,1.6,62,0.00,,,0.00,meteobridge,2013-07-06 19:48:00,
2013-07-06 15:53:00,91.9,77.0,29.98,SE,135,1.6,1.6,62,0.00,,,0.00,meteobridge,2013-07-06 19:53:00,
2013-07-06 15:58:00,91.6,76.6,29.98,SW,225,1.6,1.6,62,0.00,,,0.00,meteobridge,2013-07-06 19:58:00,
2013-07-06 16:03:00,91.2,76.8,29.98,West,270,0.7,1.6,63,0.00,,,0.00,meteobridge,2013-07-06 20:03:00,
2013-07-06 16:09:00,90.5,76.1,29.97,SSW,203,1.6,2.2,63,0.00,,,0.00,meteobridge,2013-07-06 20:09:00,
2013-07-06 16:14:00,90.1,76.3,29.98,East,90,0.7,0.7,64,0.00,,,0.00,meteobridge,2013-07-06 20:14:00,
2013-07-06 16:19:00,90.1,76.8,29.97,South,180,0.7,0.7,65,0.00,,,0.00,meteobridge,2013-07-06 20:19:00,
2013-07-06 16:24:00,90.5,77.2,29.98,East,90,0.7,0.7,65,0.00,,,0.00,meteobridge,2013-07-06 20:24:00,
2013-07-06 16:29:00,90.5,76.6,29.97,South,180,0.7,1.6,64,0.00,,,0.00,meteobridge,2013-07-06 20:29:00,
2013-07-06 16:34:00,89.8,76.5,29.97,South,180,0.7,1.6,65,0.00,,,0.00,meteobridge,2013-07-06 20:34:00,
2013-07-06 16:39:00,89.1,76.3,29.97,SW,225,1.6,1.6,66,0.00,,,0.00,meteobridge,2013-07-06 20:39:00,
2013-07-06 16:45:00,88.5,76.1,29.97,SW,225,0.7,1.6,67,0.00,,,0.00,meteobridge,2013-07-06 20:45:00,
2013-07-06 16:50:00,88.2,76.3,29.97,West,270,0.7,0.7,68,0.00,,,0.00,meteobridge,2013-07-06 20:50:00,
2013-07-06 16:55:00,88.2,76.6,29.96,East,90,1.6,1.6,69,0.00,,,0.00,meteobridge,2013-07-06 20:55:00,
2013-07-06 17:00:00,88.7,77.2,29.97,South,180,0.7,1.6,69,0.00,,,0.00,meteobridge,2013-07-06 21:00:00,
2013-07-06 17:05:00,88.7,76.8,29.96,South,180,1.6,1.6,68,0.00,,,0.00,meteobridge,2013-07-06 21:05:00,
2013-07-06 17:11:00,87.8,75.9,29.96,SE,135,0.7,2.2,68,0.00,,,0.00,meteobridge,2013-07-06 21:11:00,
2013-07-06 17:16:00,87.3,76.3,29.96,NW,315,0.7,1.6,70,0.00,,,0.00,meteobridge,2013-07-06 21:16:00,
2013-07-06 17:21:00,87.1,76.5,29.96,South,180,0.7,0.7,71,0.00,,,0.00,meteobridge,2013-07-06 21:21:00,
2013-07-06 17:26:00,87.3,76.6,29.96,NW,315,0.7,1.6,71,0.00,,,0.00,meteobridge,2013-07-06 21:26:00,
2013-07-06 17:32:00,87.3,76.6,29.96,SW,225,0.7,1.6,71,0.00,,,0.00,meteobridge,2013-07-06 21:32:00,
2013-07-06 17:37:00,87.1,76.1,29.96,South,180,0.7,1.6,70,0.00,,,0.00,meteobridge,2013-07-06 21:37:00,
2013-07-06 17:42:00,86.7,75.7,29.95,North,0,1.6,2.2,70,0.00,,,0.00,meteobridge,2013-07-06 21:42:00,
2013-07-06 17:47:00,86.5,76.5,29.96,North,0,0.7,0.7,72,0.00,,,0.00,meteobridge,2013-07-06 21:47:00,
2013-07-06 17:52:00,86.4,76.3,29.96,West,270,2.2,2.2,72,0.00,,,0.00,meteobridge,2013-07-06 21:52:00,
2013-07-06 17:57:00,86.2,76.1,29.96,WNW,293,1.6,1.6,72,0.00,,,0.00,meteobridge,2013-07-06 21:57:00,
2013-07-06 18:03:00,85.6,76.5,29.95,NE,45,1.6,1.6,74,0.00,,,0.00,meteobridge,2013-07-06 22:03:00,
2013-07-06 18:08:00,85.5,76.3,29.95,SW,225,0.7,0.7,74,0.00,,,0.00,meteobridge,2013-07-06 22:08:00,
2013-07-06 18:13:00,85.3,76.1,29.94,ESE,113,0.7,0.7,74,0.00,,,0.00,meteobridge,2013-07-06 22:13:00,
2013-07-06 18:18:00,85.3,76.5,29.94,South,180,1.6,1.6,75,0.00,,,0.00,meteobridge,2013-07-06 22:18:00,
2013-07-06 18:24:00,85.3,76.5,29.94,West,270,0.7,0.7,75,0.00,,,0.00,meteobridge,2013-07-06 22:24:00,
2013-07-06 18:29:00,85.5,76.6,29.95,West,270,0.7,0.7,75,0.00,,,0.00,meteobridge,2013-07-06 22:29:00,
2013-07-06 18:34:00,85.5,76.6,29.95,NW,315,2.2,2.2,75,0.00,,,0.00,meteobridge,2013-07-06 22:34:00,
2013-07-06 18:39:00,85.1,76.3,29.95,SE,135,1.6,1.6,75,0.00,,,0.00,meteobridge,2013-07-06 22:39:00,
2013-07-06 18:44:00,84.7,75.9,29.95,NW,315,0.7,0.7,75,0.00,,,0.00,meteobridge,2013-07-06 22:44:00,
2013-07-06 18:49:00,84.4,75.9,29.95,SW,225,1.6,1.6,76,0.00,,,0.00,meteobridge,2013-07-06 22:49:00,
2013-07-06 18:54:00,84.2,75.7,29.94,South,180,1.6,1.6,76,0.00,,,0.00,meteobridge,2013-07-06 22:54:00,
2013-07-06 19:00:00,83.7,75.7,29.95,SE,135,0.7,0.7,77,0.00,,,0.00,meteobridge,2013-07-06 23:00:00,
2013-07-06 19:05:00,83.3,75.7,29.95,South,180,0.7,0.7,78,0.00,,,0.00,meteobridge,2013-07-06 23:05:00,
2013-07-06 19:11:00,83.1,75.6,29.95,SW,225,0.0,2.2,78,0.00,,,0.00,meteobridge,2013-07-06 23:11:00,
2013-07-06 19:16:00,83.1,75.6,29.94,SW,225,0.7,0.7,78,0.00,,,0.00,meteobridge,2013-07-06 23:16:00,
2013-07-06 19:21:00,82.9,75.4,29.95,West,270,0.7,1.6,78,0.00,,,0.00,meteobridge,2013-07-06 23:21:00,
2013-07-06 19:26:00,82.8,75.2,29.95,NW,315,0.0,0.7,78,0.00,,,0.00,meteobridge,2013-07-06 23:26:00,
2013-07-06 19:31:00,82.6,75.0,29.95,SE,135,0.0,0.7,78,0.00,,,0.00,meteobridge,2013-07-06 23:31:00,
2013-07-06 19:36:00,82.2,75.4,29.95,South,180,0.0,0.7,80,0.00,,,0.00,meteobridge,2013-07-06 23:36:00,
2013-07-06 19:41:00,82.0,75.2,29.95,NW,315,1.6,1.6,80,0.00,,,0.00,meteobridge,2013-07-06 23:41:00,
2013-07-06 19:47:00,81.9,75.4,29.95,SW,225,0.7,0.7,81,0.00,,,0.00,meteobridge,2013-07-06 23:47:00,
2013-07-06 19:52:00,81.5,75.0,29.95,NW,315,1.6,1.6,81,0.00,,,0.00,meteobridge,2013-07-06 23:52:00,
2013-07-06 19:57:00,81.1,74.7,29.95,South,180,0.7,0.7,81,0.00,,,0.00,meteobridge,2013-07-06 23:57:00,
2013-07-06 20:02:00,81.0,74.7,29.95,South,180,0.7,0.7,81,0.00,,,0.00,meteobridge,2013-07-07 00:02:00,
2013-07-06 20:07:00,80.8,74.8,29.95,West,270,0.7,0.7,82,0.00,,,0.00,meteobridge,2013-07-07 00:07:00,
2013-07-06 20:12:00,80.6,74.7,29.95,South,180,0.7,0.7,82,0.00,,,0.00,meteobridge,2013-07-07 00:12:00,
2013-07-06 20:17:00,80.6,74.7,29.95,West,270,0.0,1.6,82,0.00,,,0.00,meteobridge,2013-07-07 00:17:00,
2013-07-06 20:22:00,80.4,74.8,29.95,SW,225,0.7,0.7,83,0.00,,,0.00,meteobridge,2013-07-07 00:22:00,
2013-07-06 20:27:00,80.2,74.7,29.95,NW,315,1.6,1.6,83,0.00,,,0.00,meteobridge,2013-07-07 00:27:00,
2013-07-06 20:33:00,80.1,74.8,29.96,SW,225,0.7,0.7,84,0.00,,,0.00,meteobridge,2013-07-07 00:33:00,
2013-07-06 20:38:00,80.1,74.8,29.96,NNW,338,0.7,1.6,84,0.00,,,0.00,meteobridge,2013-07-07 00:38:00,
2013-07-06 20:43:00,79.9,74.7,29.96,SE,135,1.6,1.6,84,0.00,,,0.00,meteobridge,2013-07-07 00:43:00,
2013-07-06 20:48:00,79.7,74.5,29.96,West,270,0.7,1.6,84,0.00,,,0.00,meteobridge,2013-07-07 00:48:00,
2013-07-06 20:53:00,79.5,74.3,29.96,North,0,0.0,0.7,84,0.00,,,0.00,meteobridge,2013-07-07 00:53:00,
2013-07-06 20:58:00,79.3,74.1,29.96,NE,45,1.6,1.6,84,0.00,,,0.00,meteobridge,2013-07-07 00:58:00,
2013-07-06 21:03:00,79.2,74.3,29.96,SW,225,0.0,0.0,85,0.00,,,0.00,meteobridge,2013-07-07 01:03:00,
2013-07-06 21:09:00,79.2,74.3,29.97,South,180,0.7,0.7,85,0.00,,,0.00,meteobridge,2013-07-07 01:09:00,
2013-07-06 21:14:00,79.2,74.3,29.97,SW,225,0.7,0.7,85,0.00,,,0.00,meteobridge,2013-07-07 01:14:00,
2013-07-06 21:19:00,79.0,74.1,29.97,West,270,0.7,1.6,85,0.00,,,0.00,meteobridge,2013-07-07 01:19:00,
2013-07-06 21:24:00,78.8,73.9,29.97,NW,315,0.0,0.7,85,0.00,,,0.00,meteobridge,2013-07-07 01:24:00,
2013-07-06 21:30:00,78.8,73.9,29.97,North,0,0.0,0.0,85,0.00,,,0.00,meteobridge,2013-07-07 01:30:00,
2013-07-06 21:35:00,78.6,74.1,29.97,West,270,0.0,0.0,86,0.00,,,0.00,meteobridge,2013-07-07 01:35:00,
2013-07-06 21:40:00,78.4,74.3,29.97,SE,135,0.0,0.0,87,0.00,,,0.00,meteobridge,2013-07-07 01:40:00,
2013-07-06 21:45:00,78.3,74.1,29.97,SSE,158,0.0,0.0,87,0.00,,,0.00,meteobridge,2013-07-07 01:45:00,
2013-07-06 21:50:00,78.1,73.9,29.97,North,0,0.0,0.7,87,0.00,,,0.00,meteobridge,2013-07-07 01:50:00,
2013-07-06 21:56:00,78.1,73.9,29.97,South,180,0.0,0.0,87,0.00,,,0.00,meteobridge,2013-07-07 01:56:00,
2013-07-06 22:01:00,77.9,73.8,29.97,NW,315,0.0,1.6,87,0.00,,,0.00,meteobridge,2013-07-07 02:01:00,
2013-07-06 22:06:00,77.7,73.6,29.98,WSW,248,0.0,0.0,87,0.00,,,0.00,meteobridge,2013-07-07 02:06:00,
2013-07-06 22:11:00,77.7,73.9,29.97,SW,225,0.0,0.7,88,0.00,,,0.00,meteobridge,2013-07-07 02:11:00,
2013-07-06 22:16:00,77.5,73.8,29.98,West,270,0.0,0.0,88,0.00,,,0.00,meteobridge,2013-07-07 02:16:00,
2013-07-06 22:22:00,77.5,73.8,29.97,West,270,0.0,0.0,88,0.00,,,0.00,meteobridge,2013-07-07 02:22:00,
2013-07-06 22:27:00,77.4,73.6,29.98,South,180,0.7,0.7,88,0.00,,,0.00,meteobridge,2013-07-07 02:27:00,
2013-07-06 22:33:00,77.4,73.9,29.98,North,0,0.0,0.7,89,0.00,,,0.00,meteobridge,2013-07-07 02:33:00,
2013-07-06 22:38:00,77.2,73.8,29.97,SW,225,0.0,0.0,89,0.00,,,0.00,meteobridge,2013-07-07 02:38:00,
2013-07-06 22:43:00,77.2,73.8,29.97,West,270,0.0,0.7,89,0.00,,,0.00,meteobridge,2013-07-07 02:43:00,
2013-07-06 22:48:00,77.0,73.6,29.98,North,0,0.0,0.7,89,0.00,,,0.00,meteobridge,2013-07-07 02:48:00,
2013-07-06 22:53:00,77.0,73.6,29.98,NW,315,0.7,1.6,89,0.00,,,0.00,meteobridge,2013-07-07 02:53:00,
2013-07-06 22:59:00,77.0,73.6,29.98,South,180,0.0,0.7,89,0.00,,,0.00,meteobridge,2013-07-07 02:59:00,
2013-07-06 23:04:00,76.8,73.6,29.98,North,0,0.0,0.7,90,0.00,,,0.00,meteobridge,2013-07-07 03:04:00,
2013-07-06 23:09:00,76.8,73.6,29.98,North,0,0.0,0.0,90,0.00,,,0.00,meteobridge,2013-07-07 03:09:00,
2013-07-06 23:14:00,76.6,73.4,29.98,NW,315,1.6,1.6,90,0.00,,,0.00,meteobridge,2013-07-07 03:14:00,
2013-07-06 23:19:00,76.6,73.4,29.98,West,270,0.0,0.0,90,0.00,,,0.00,meteobridge,2013-07-07 03:19:00,
2013-07-06 23:24:00,76.5,73.2,29.98,West,270,0.0,0.0,90,0.00,,,0.00,meteobridge,2013-07-07 03:24:00,
2013-07-06 23:30:00,76.3,73.0,29.98,NW,315,0.0,0.0,90,0.00,,,0.00,meteobridge,2013-07-07 03:30:00,
2013-07-06 23:35:00,76.1,72.9,29.98,West,270,0.0,0.0,90,0.00,,,0.00,meteobridge,2013-07-07 03:35:00,
2013-07-06 23:40:00,76.1,72.9,29.98,NW,315,0.0,0.0,90,0.00,,,0.00,meteobridge,2013-07-07 03:40:00,
2013-07-06 23:45:00,75.9,73.0,29.98,West,270,0.0,0.0,91,0.00,,,0.00,meteobridge,2013-07-07 03:45:00,
2013-07-06 23:50:00,75.9,73.0,29.98,South,180,0.0,0.7,91,0.00,,,0.00,meteobridge,2013-07-07 03:50:00,
2013-07-06 23:56:00,75.9,73.0,29.98,SW,225,0.0,0.0,91,0.00,,,0.00,meteobridge,2013-07-07 03:56:00,